This is the latest recevied weather packets stored in our database for station/object KE5KUL-13. If no packets are shown the sender has not sent any weather packets the latest 10 day(s).
| Time | Temp. | Humidity | Pressure | Rain* | Wind** | Luminosity | Snow |
|---|---|---|---|---|---|---|---|
| 1777407319 | 28.89° C | 20% | 1015.6 hPa | 0 mm | - | - | - |
| 1777406719 | 30° C | 22% | 1016.2 hPa | 0 mm | - | - | - |
| 1777406119 | 30° C | 24% | 1016.5 hPa | 0 mm | - | - | - |
| 1777405517 | 30° C | 25% | 1016.8 hPa | 0 mm | - | - | - |
| 1777404919 | 29.44° C | 26% | 1016.6 hPa | 0 mm | - | - | - |
| 1777404319 | 28.89° C | 26% | 1016.6 hPa | 0 mm | - | - | - |
| 1777403719 | 29.44° C | 26% | 1016.7 hPa | 0 mm | - | - | - |
| 1777403117 | 29.44° C | 26% | 1016.8 hPa | 0 mm | - | - | - |
| 1777402519 | 28.89° C | 26% | 1017 hPa | 0 mm | - | - | - |
| 1777401919 | 28.33° C | 26% | 1017.1 hPa | 0 mm | - | - | - |
| 1777401319 | 27.78° C | 27% | 1016.9 hPa | 0 mm | - | - | - |
| 1777400719 | 27.78° C | 29% | 1016.9 hPa | 0 mm | - | - | - |
| 1777400119 | 27.22° C | 30% | 1017.2 hPa | 0 mm | - | - | - |
| 1777399519 | 27.22° C | 30% | 1017.3 hPa | 0 mm | - | - | - |
| 1777398919 | 26.67° C | 31% | 1017.4 hPa | 0 mm | - | - | - |
| 1777398319 | 26.67° C | 34% | 1017.6 hPa | 0 mm | - | - | - |
| 1777397719 | 26.11° C | 35% | 1017.5 hPa | 0 mm | - | - | - |
| 1777397119 | 25.56° C | 36% | 1017.7 hPa | 0 mm | - | - | - |
| 1777396519 | 25° C | 37% | 1017.7 hPa | 0 mm | - | - | - |
| 1777395919 | 25° C | 37% | 1017.6 hPa | 0 mm | - | - | - |
| 1777395318 | 24.44° C | 38% | 1017.6 hPa | 0 mm | - | - | - |
| 1777394718 | 23.89° C | 40% | 1017.5 hPa | 0 mm | - | - | - |
| 1777394119 | 23.33° C | 42% | 1017.6 hPa | 0 mm | - | - | - |
| 1777393519 | 23.33° C | 43% | 1017.6 hPa | 0 mm | - | - | - |
| 1777392919 | 23.33° C | 43% | 1017.5 hPa | 0 mm | - | - | - |
* Rain latest hour (hover to see other rain measurements)
** Current wind speed in m/s (hover to see current wind gust speed)